createdAt,value
2023-03-05T00:01:57.371Z,53986.88
2023-03-05T00:04:23.708Z,53978.63
2023-03-05T00:06:52.501Z,54005.50
2023-03-05T00:09:18.921Z,53988.94
2023-03-05T00:11:45.230Z,53999.28
2023-03-05T00:14:13.248Z,53991.03
2023-03-05T00:16:40.763Z,54001.34
2023-03-05T00:19:07.274Z,54001.34
2023-03-05T00:21:34.746Z,54028.25
2023-03-05T00:24:01.624Z,54034.44
2023-03-05T00:26:27.982Z,54042.72
2023-03-05T00:28:54.763Z,54011.69
2023-03-05T00:31:22.121Z,54026.16
2023-03-05T00:33:55.084Z,53997.22
2023-03-05T00:36:21.743Z,54019.97
2023-03-05T00:38:49.341Z,54017.91
2023-03-05T00:41:15.684Z,54007.56
2023-03-05T00:43:42.043Z,54003.44
2023-03-05T00:46:08.430Z,53964.16
2023-03-05T00:48:34.795Z,53951.75
2023-03-05T00:51:03.394Z,54001.34
2023-03-05T00:53:29.689Z,53988.94
2023-03-05T00:55:56.101Z,53957.94
2023-03-05T00:58:22.465Z,53960.00
2023-03-05T01:00:51.784Z,53960.00
2023-03-05T01:03:18.621Z,53976.53
2023-03-05T01:05:46.224Z,53999.28
2023-03-05T01:08:12.710Z,53947.59
2023-03-05T01:10:39.015Z,53960.00
2023-03-05T01:13:05.338Z,54015.84
2023-03-05T01:15:31.619Z,53986.88
2023-03-05T01:17:57.926Z,54030.31
2023-03-05T01:20:24.308Z,54042.72
2023-03-05T01:22:50.744Z,54075.78
2023-03-05T01:25:17.621Z,54084.06
2023-03-05T01:27:46.592Z,54115.09
2023-03-05T01:30:14.392Z,54123.34
2023-03-05T01:32:40.878Z,54133.69
2023-03-05T01:35:07.861Z,54158.50
2023-03-05T01:37:34.261Z,54251.56
2023-03-05T01:40:00.555Z,54278.44
2023-03-05T01:42:26.847Z,54328.06
2023-03-05T01:45:00.068Z,54375.63
2023-03-05T01:47:26.400Z,54431.47
2023-03-05T01:49:54.168Z,54400.44
2023-03-05T01:52:21.435Z,54435.59
2023-03-05T01:54:51.723Z,54423.19
2023-03-05T01:57:19.716Z,54454.22
2023-03-05T01:59:48.079Z,54528.66
2023-03-05T02:02:14.409Z,54551.41
2023-03-05T02:04:47.120Z,54578.28
2023-03-05T02:07:13.730Z,54609.31
2023-03-05T02:09:40.541Z,54615.50
2023-03-05T02:12:07.294Z,54574.16
2023-03-05T02:14:40.934Z,54596.91
2023-03-05T02:17:08.030Z,54570.03
2023-03-05T02:19:55.042Z,54561.75
2023-03-05T02:22:22.698Z,54578.28
2023-03-05T02:24:49.051Z,54578.28
2023-03-05T02:27:21.446Z,54590.69
2023-03-05T02:29:50.341Z,54605.19
2023-03-05T02:32:16.764Z,54582.44
2023-03-05T02:35:08.997Z,54536.94
2023-03-05T02:37:44.156Z,54601.03
2023-03-05T02:40:10.900Z,54507.97
2023-03-05T02:42:37.184Z,54489.38
2023-03-05T02:45:09.408Z,54489.38
2023-03-05T02:47:35.734Z,54448.00
2023-03-05T02:50:09.279Z,54445.94
2023-03-05T02:52:37.991Z,54464.56
2023-03-05T02:55:08.120Z,54456.28
2023-03-05T02:57:34.413Z,54512.13
2023-03-05T03:00:00.762Z,54445.94
2023-03-05T03:02:36.089Z,54423.19
2023-03-05T03:05:02.404Z,54427.31
2023-03-05T03:07:32.093Z,54402.50
2023-03-05T03:10:01.438Z,54363.22
2023-03-05T03:12:31.177Z,54402.50
2023-03-05T03:15:06.488Z,54348.75
2023-03-05T03:17:34.375Z,54311.53
2023-03-05T03:20:07.649Z,54321.88
2023-03-05T03:22:42.792Z,54286.72
2023-03-05T03:25:09.366Z,54311.53
2023-03-05T03:27:35.650Z,54282.56
2023-03-05T03:30:07.351Z,54299.13
2023-03-05T03:32:36.105Z,54311.53
2023-03-05T03:35:03.036Z,54294.97
2023-03-05T03:37:32.424Z,54303.25
2023-03-05T03:39:58.727Z,54315.66
2023-03-05T03:42:25.061Z,54305.31
2023-03-05T03:44:56.305Z,54317.72
2023-03-05T03:47:22.667Z,54332.22
2023-03-05T03:49:48.950Z,54328.06
2023-03-05T03:52:15.859Z,54321.88
2023-03-05T03:54:44.076Z,54317.72
2023-03-05T03:57:10.967Z,54315.66
2023-03-05T03:59:37.271Z,54321.88
2023-03-05T04:02:03.812Z,54311.53
2023-03-05T04:04:30.280Z,54270.16
2023-03-05T04:06:56.689Z,54226.75
2023-03-05T04:09:29.149Z,54245.34
2023-03-05T04:11:57.884Z,54253.63
2023-03-05T04:14:24.233Z,54280.50
2023-03-05T04:16:50.512Z,54253.63
2023-03-05T04:19:16.778Z,54274.31
2023-03-05T04:21:49.549Z,54280.50
2023-03-05T04:24:15.851Z,54292.91
2023-03-05T04:26:42.572Z,54317.72
2023-03-05T04:29:08.914Z,54326.00
2023-03-05T04:31:35.335Z,54361.16
2023-03-05T04:34:04.704Z,54363.22
2023-03-05T04:36:31.031Z,54352.88
2023-03-05T04:38:57.382Z,54361.16
2023-03-05T04:41:23.701Z,54400.44
2023-03-05T04:43:49.997Z,54472.81
2023-03-05T04:46:16.351Z,54456.28
2023-03-05T04:48:43.250Z,54472.81
2023-03-05T04:51:09.538Z,54497.63
2023-03-05T04:53:36.202Z,54510.03
2023-03-05T04:56:02.488Z,54485.22
2023-03-05T04:58:29.027Z,54567.94
2023-03-05T05:01:00.183Z,54563.81
2023-03-05T05:03:46.741Z,54617.59
2023-03-05T05:06:31.388Z,54596.91
2023-03-05T05:09:00.130Z,54588.63
2023-03-05T05:11:26.430Z,54640.34
2023-03-05T05:13:52.792Z,54658.94
2023-03-05T05:16:32.051Z,54671.34
2023-03-05T05:18:58.432Z,54617.59
2023-03-05T05:21:24.762Z,54646.53
2023-03-05T05:23:51.056Z,54596.91
2023-03-05T05:26:20.347Z,54638.25
2023-03-05T05:28:46.704Z,54621.72
2023-03-05T05:31:18.751Z,54648.59
2023-03-05T05:33:45.199Z,54613.44
2023-03-05T05:36:15.466Z,54576.22
2023-03-05T05:38:43.639Z,54594.84
2023-03-05T05:41:13.977Z,54574.16
2023-03-05T05:43:40.794Z,54603.09
2023-03-05T05:46:08.279Z,54551.41
2023-03-05T05:48:35.056Z,54584.50
2023-03-05T05:51:08.340Z,54582.44
2023-03-05T05:53:34.612Z,54549.34
2023-03-05T05:56:01.261Z,54565.88
2023-03-05T05:58:28.085Z,54545.19
2023-03-05T06:00:54.484Z,54518.31
2023-03-05T06:03:20.788Z,54601.03
2023-03-05T06:05:47.811Z,54621.72
2023-03-05T06:08:14.364Z,54578.28
2023-03-05T06:10:40.775Z,54464.56
2023-03-05T06:13:09.433Z,54421.13
2023-03-05T06:15:35.717Z,54433.53
2023-03-05T06:18:34.529Z,54468.69
2023-03-05T06:21:10.852Z,54400.44
2023-03-05T06:23:37.179Z,54342.53
2023-03-05T06:26:21.994Z,54338.41
2023-03-05T06:28:48.344Z,54307.38
2023-03-05T06:31:18.764Z,54330.13
2023-03-05T06:33:51.289Z,54290.84
2023-03-05T06:36:24.997Z,54315.66
2023-03-05T06:38:53.333Z,54257.75
2023-03-05T06:41:21.253Z,54235.03
2023-03-05T06:43:47.879Z,54249.50
2023-03-05T06:46:21.937Z,54249.50
2023-03-05T06:48:53.220Z,54226.75
2023-03-05T06:51:20.905Z,54235.03
2023-03-05T06:53:49.394Z,54158.50
2023-03-05T06:56:16.689Z,54168.84
2023-03-05T06:58:43.793Z,54166.78
2023-03-05T07:01:10.214Z,54141.97
2023-03-05T07:03:36.654Z,54133.69
2023-03-05T07:06:06.756Z,54150.25
2023-03-05T07:08:33.365Z,54146.09
2023-03-05T07:10:59.963Z,54121.28
2023-03-05T07:13:26.487Z,54123.34
2023-03-05T07:15:52.881Z,54125.44
2023-03-05T07:18:19.252Z,54121.28
2023-03-05T07:20:45.590Z,54075.78
2023-03-05T07:23:11.910Z,54121.28
2023-03-05T07:25:40.772Z,54100.63
2023-03-05T07:28:07.097Z,54129.56
2023-03-05T07:30:36.042Z,54144.03
2023-03-05T07:33:02.693Z,54129.56
2023-03-05T07:35:28.988Z,54137.84
2023-03-05T07:37:55.823Z,54199.88
2023-03-05T07:40:22.440Z,54204.00
2023-03-05T07:42:48.772Z,54247.44
2023-03-05T07:45:15.101Z,54185.38
2023-03-05T07:47:41.440Z,54175.06
2023-03-05T07:50:10.362Z,54148.16
2023-03-05T07:52:36.690Z,54154.38
2023-03-05T07:55:03.079Z,54104.75
2023-03-05T07:57:29.518Z,54141.97
2023-03-05T07:59:55.807Z,54175.06
2023-03-05T08:02:22.382Z,54208.13
2023-03-05T08:04:48.729Z,54268.09
2023-03-05T08:07:15.891Z,54340.47
2023-03-05T08:09:42.857Z,54328.06
2023-03-05T08:12:10.308Z,54392.19
2023-03-05T08:14:36.860Z,54435.59
2023-03-05T08:17:03.977Z,54485.22
2023-03-05T08:19:30.280Z,54518.31
2023-03-05T08:21:56.588Z,54576.22
2023-03-05T08:24:29.598Z,54640.34
2023-03-05T08:26:58.773Z,54638.25
2023-03-05T08:29:25.398Z,54685.81
2023-03-05T08:31:53.470Z,54694.09
2023-03-05T08:34:20.562Z,54712.72
2023-03-05T08:36:47.053Z,54760.28
2023-03-05T08:39:13.607Z,54720.97
2023-03-05T08:41:39.892Z,54665.16
2023-03-05T08:44:07.136Z,54646.53
2023-03-05T08:46:36.037Z,54725.13
2023-03-05T08:49:02.408Z,54708.56
2023-03-05T08:51:28.749Z,54700.31
2023-03-05T08:53:55.893Z,54694.09
2023-03-05T08:56:22.236Z,54661.00
2023-03-05T08:58:48.613Z,54694.09
2023-03-05T09:01:14.948Z,54611.38
2023-03-05T09:03:41.391Z,54580.34
2023-03-05T09:06:08.489Z,54528.66
2023-03-05T09:08:35.028Z,54419.06
2023-03-05T09:11:04.244Z,54292.91
2023-03-05T09:13:30.620Z,54224.69
2023-03-05T09:16:00.998Z,54228.81
2023-03-05T09:18:27.369Z,54212.28
2023-03-05T09:20:54.013Z,54185.38
2023-03-05T09:23:20.483Z,54125.44
2023-03-05T09:25:46.895Z,54150.25
2023-03-05T09:28:13.178Z,54166.78
2023-03-05T09:30:39.464Z,54131.63
2023-03-05T09:33:05.752Z,54106.81
2023-03-05T09:35:34.124Z,54079.94
2023-03-05T09:38:00.435Z,54084.06
2023-03-05T09:40:26.976Z,54009.63
2023-03-05T09:42:53.476Z,53957.94
2023-03-05T09:45:22.793Z,53941.41
2023-03-05T09:47:54.950Z,53877.31
2023-03-05T09:50:35.510Z,53891.78
2023-03-05T09:53:07.640Z,53850.41
2023-03-05T09:55:40.423Z,53850.41
2023-03-05T09:58:09.725Z,53850.41
2023-03-05T10:00:38.709Z,53869.03
2023-03-05T10:03:16.533Z,53856.63
2023-03-05T10:05:48.216Z,53885.56
2023-03-05T10:08:14.556Z,53885.56
2023-03-05T10:10:41.920Z,53918.66
2023-03-05T10:13:27.297Z,53955.88
2023-03-05T10:15:58.234Z,53980.69
2023-03-05T10:18:24.483Z,53914.53
2023-03-05T10:20:50.721Z,53953.81
2023-03-05T10:23:24.660Z,53988.94
2023-03-05T10:26:09.898Z,54007.56
2023-03-05T10:28:39.182Z,54017.91
2023-03-05T10:31:25.028Z,54009.63
2023-03-05T10:33:54.398Z,54073.72
2023-03-05T10:36:24.307Z,54123.34
2023-03-05T10:38:50.562Z,54110.94
2023-03-05T10:41:21.136Z,54148.16
2023-03-05T10:43:47.382Z,54183.31
2023-03-05T10:46:16.207Z,54191.59
2023-03-05T10:49:12.205Z,54193.66
2023-03-05T10:51:40.394Z,54245.34
2023-03-05T10:54:24.353Z,54162.66
2023-03-05T10:56:50.916Z,54154.38
2023-03-05T10:59:17.201Z,54133.69
2023-03-05T11:01:43.594Z,54104.75
2023-03-05T11:04:26.499Z,54113.03
2023-03-05T11:06:53.234Z,54092.34
2023-03-05T11:09:29.097Z,54044.78
2023-03-05T11:12:08.505Z,53999.28
2023-03-05T11:14:35.409Z,54013.75
2023-03-05T11:17:03.399Z,54007.56
2023-03-05T11:19:32.778Z,54026.16
2023-03-05T11:22:08.352Z,53960.00
2023-03-05T11:24:34.769Z,53922.78
2023-03-05T11:27:01.175Z,54007.56
2023-03-05T11:29:32.306Z,54001.34
2023-03-05T11:32:20.360Z,54028.25
2023-03-05T11:34:46.761Z,53951.75
2023-03-05T11:37:24.259Z,53941.41
2023-03-05T11:39:57.506Z,53897.97
2023-03-05T11:42:25.376Z,53877.31
2023-03-05T11:44:53.006Z,53912.44
2023-03-05T11:47:32.753Z,53964.16
2023-03-05T11:50:00.885Z,53873.16
2023-03-05T11:52:28.318Z,53904.19
2023-03-05T11:54:54.888Z,53889.72
2023-03-05T11:57:21.410Z,53869.03
2023-03-05T11:59:47.706Z,53835.94
2023-03-05T12:02:21.188Z,53817.34
2023-03-05T12:04:47.616Z,53811.13
2023-03-05T12:07:15.082Z,53819.41
2023-03-05T12:09:42.406Z,53827.69
2023-03-05T12:12:20.909Z,53800.81
2023-03-05T12:14:51.683Z,53798.72
2023-03-05T12:17:27.795Z,53802.88
2023-03-05T12:19:54.218Z,53825.59
2023-03-05T12:22:24.075Z,53790.47
2023-03-05T12:24:51.221Z,53759.44
2023-03-05T12:27:34.016Z,53761.50
2023-03-05T12:30:03.693Z,53773.91
2023-03-05T12:32:31.655Z,53798.72
2023-03-05T12:35:16.824Z,53761.50
2023-03-05T12:37:43.055Z,53736.69
2023-03-05T12:40:12.633Z,53753.25
2023-03-05T12:42:38.901Z,53757.38
2023-03-05T12:45:15.851Z,53780.13
2023-03-05T12:47:42.147Z,53765.66
2023-03-05T12:50:27.040Z,53757.38
2023-03-05T12:53:00.338Z,53759.44
2023-03-05T12:55:33.921Z,53782.19
2023-03-05T12:58:19.165Z,53773.91
2023-03-05T13:00:51.758Z,53751.19
2023-03-05T13:03:19.949Z,53769.78
2023-03-05T13:05:53.757Z,53767.72
2023-03-05T13:08:19.997Z,53765.66
2023-03-05T13:10:53.242Z,53802.88
2023-03-05T13:13:20.717Z,53794.59
2023-03-05T13:15:50.569Z,53757.38
2023-03-05T13:18:19.434Z,53740.84
2023-03-05T13:20:45.936Z,53778.06
2023-03-05T13:23:16.167Z,53759.44
2023-03-05T13:25:43.173Z,53761.50
2023-03-05T13:28:13.948Z,53753.25
2023-03-05T13:30:43.792Z,53753.25
2023-03-05T13:33:13.575Z,53730.50
2023-03-05T13:35:40.075Z,53765.66
2023-03-05T13:38:06.387Z,53753.25
2023-03-05T13:40:32.744Z,53747.03
2023-03-05T13:43:09.394Z,53765.66
2023-03-05T13:45:35.711Z,53778.06
2023-03-05T13:48:03.330Z,53776.00
2023-03-05T13:50:30.945Z,53780.13
2023-03-05T13:53:14.732Z,53784.25
2023-03-05T13:55:41.501Z,53784.25
2023-03-05T13:58:27.723Z,53749.09
2023-03-05T14:01:02.351Z,53794.59
2023-03-05T14:03:29.364Z,53747.03
2023-03-05T14:05:55.649Z,53761.50
2023-03-05T14:08:22.856Z,53765.66
2023-03-05T14:10:49.265Z,53761.50
2023-03-05T14:13:23.497Z,53798.72
2023-03-05T14:16:03.107Z,53778.06
2023-03-05T14:18:29.476Z,53778.06
2023-03-05T14:21:07.681Z,53767.72
2023-03-05T14:23:34.170Z,53769.78
2023-03-05T14:26:19.072Z,53790.47
2023-03-05T14:28:50.286Z,53763.59
2023-03-05T14:31:17.232Z,53780.13
2023-03-05T14:33:43.558Z,53794.59
2023-03-05T14:36:09.998Z,53786.31
2023-03-05T14:38:38.262Z,53761.50
2023-03-05T14:41:34.233Z,53798.72
2023-03-05T14:44:00.942Z,53798.72
2023-03-05T14:46:27.330Z,53765.66
2023-03-05T14:48:54.323Z,53794.59
2023-03-05T14:51:20.626Z,53788.41
2023-03-05T14:53:47.992Z,53769.78
2023-03-05T14:56:18.868Z,53771.84
2023-03-05T14:58:45.152Z,53765.66
2023-03-05T15:01:12.072Z,53767.72
2023-03-05T15:03:40.809Z,53790.47
2023-03-05T15:06:09.827Z,53765.66
2023-03-05T15:08:36.186Z,53786.31
2023-03-05T15:11:03.783Z,53765.66
2023-03-05T15:13:30.128Z,53794.59
2023-03-05T15:15:56.472Z,53753.25
2023-03-05T15:18:23.618Z,53755.31
2023-03-05T15:20:52.090Z,53773.91
2023-03-05T15:23:18.637Z,53784.25
2023-03-05T15:25:44.982Z,53749.09
2023-03-05T15:28:11.290Z,53749.09
2023-03-05T15:30:38.706Z,53792.53
2023-03-05T15:33:07.366Z,53807.00
2023-03-05T15:35:33.693Z,53767.72
2023-03-05T15:38:00.050Z,53790.47
2023-03-05T15:40:27.710Z,53761.50
2023-03-05T15:42:54.815Z,53744.97
2023-03-05T15:45:21.132Z,53780.13
2023-03-05T15:47:51.021Z,53776.00
2023-03-05T15:50:17.493Z,53773.91
2023-03-05T15:52:43.800Z,53796.66
2023-03-05T15:55:10.282Z,53800.81
2023-03-05T15:57:37.140Z,53769.78
2023-03-05T16:00:06.780Z,53738.78
2023-03-05T16:02:33.124Z,53790.47
2023-03-05T16:04:59.451Z,53780.13
2023-03-05T16:07:25.774Z,53782.19
2023-03-05T16:09:52.368Z,53776.00
2023-03-05T16:12:22.962Z,53769.78
2023-03-05T16:14:50.939Z,53751.19
2023-03-05T16:17:18.377Z,53780.13
2023-03-05T16:19:45.697Z,53782.19
2023-03-05T16:22:12.180Z,53778.06
2023-03-05T16:24:38.461Z,53823.53
2023-03-05T16:27:04.845Z,53794.59
2023-03-05T16:29:32.402Z,53786.31
2023-03-05T16:31:59.002Z,53784.25
2023-03-05T16:34:25.333Z,53798.72
2023-03-05T16:36:52.626Z,53792.53
2023-03-05T16:39:22.010Z,53771.84
2023-03-05T16:41:48.431Z,53776.00
2023-03-05T16:44:14.731Z,53786.31
2023-03-05T16:46:41.955Z,53790.47
2023-03-05T16:49:11.795Z,53819.41
2023-03-05T16:51:38.111Z,53796.66
2023-03-05T16:54:04.388Z,53763.59
2023-03-05T16:56:30.679Z,53819.41
2023-03-05T16:58:56.975Z,53771.84
2023-03-05T17:01:23.694Z,53802.88
2023-03-05T17:03:50.484Z,53790.47
2023-03-05T17:06:18.371Z,53792.53
2023-03-05T17:08:45.071Z,53833.88
2023-03-05T17:11:12.536Z,53817.34
2023-03-05T17:13:39.026Z,53792.53
2023-03-05T17:16:06.016Z,53782.19
2023-03-05T17:18:32.535Z,53796.66
2023-03-05T17:20:59.030Z,53782.19
2023-03-05T17:23:25.340Z,53802.88
2023-03-05T17:25:51.687Z,53788.41
2023-03-05T17:28:18.022Z,53802.88
2023-03-05T17:30:44.512Z,53792.53
2023-03-05T17:33:11.112Z,53755.31
2023-03-05T17:35:37.450Z,53786.31
2023-03-05T17:38:04.537Z,53786.31
2023-03-05T17:40:30.906Z,53782.19
2023-03-05T17:42:57.178Z,53784.25
2023-03-05T17:45:23.556Z,53802.88
2023-03-05T17:47:49.870Z,53786.31
2023-03-05T17:50:16.291Z,53809.06
2023-03-05T17:52:45.521Z,53778.06
2023-03-05T17:55:12.842Z,53804.94
2023-03-05T17:57:41.354Z,53823.53
2023-03-05T18:00:18.516Z,53790.47
2023-03-05T18:02:44.971Z,53802.88
2023-03-05T18:05:11.552Z,53809.06
2023-03-05T18:07:38.141Z,53784.25
2023-03-05T18:10:04.965Z,53835.94
2023-03-05T18:12:31.273Z,53773.91
2023-03-05T18:14:57.649Z,53827.69
2023-03-05T18:17:23.933Z,53823.53
2023-03-05T18:19:50.380Z,53829.75
2023-03-05T18:22:16.702Z,53819.41
2023-03-05T18:24:42.971Z,53809.06
2023-03-05T18:27:09.303Z,53819.41
2023-03-05T18:29:35.596Z,53804.94
2023-03-05T18:32:02.164Z,53809.06
2023-03-05T18:34:28.601Z,53819.41
2023-03-05T18:36:54.969Z,53807.00
2023-03-05T18:39:33.837Z,53804.94
2023-03-05T18:42:00.429Z,53800.81
2023-03-05T18:44:35.488Z,53811.13
2023-03-05T18:47:01.806Z,53815.28
2023-03-05T18:49:28.938Z,53800.81
2023-03-05T18:51:55.218Z,53840.09
2023-03-05T18:54:21.522Z,53817.34
2023-03-05T18:56:47.819Z,53804.94
2023-03-05T18:59:14.113Z,53835.94
2023-03-05T19:01:40.475Z,53800.81
2023-03-05T19:04:06.981Z,53848.34
2023-03-05T19:06:34.250Z,53848.34
2023-03-05T19:09:05.438Z,53827.69
2023-03-05T19:11:31.722Z,53825.59
2023-03-05T19:13:58.406Z,53877.31
2023-03-05T19:16:30.291Z,53831.81
2023-03-05T19:19:13.538Z,53879.38
2023-03-05T19:21:40.161Z,53838.00
2023-03-05T19:24:09.096Z,53862.81
2023-03-05T19:26:35.393Z,53897.97
2023-03-05T19:29:02.192Z,53854.56
2023-03-05T19:31:28.533Z,53852.50
2023-03-05T19:33:55.002Z,53893.84
2023-03-05T19:36:21.582Z,53887.63
2023-03-05T19:38:48.691Z,53840.09
2023-03-05T19:41:17.815Z,53883.50
2023-03-05T19:43:44.099Z,53838.00
2023-03-05T19:46:10.447Z,53877.31
2023-03-05T19:48:37.886Z,53852.50
2023-03-05T19:51:08.074Z,53885.56
2023-03-05T19:53:34.372Z,53869.03
2023-03-05T19:56:02.880Z,53831.81
2023-03-05T19:58:29.199Z,53854.56
2023-03-05T20:00:55.625Z,53869.03
2023-03-05T20:03:21.915Z,53827.69
2023-03-05T20:05:48.238Z,53860.75
2023-03-05T20:08:14.536Z,53848.34
2023-03-05T20:10:40.823Z,53844.22
2023-03-05T20:13:07.111Z,53862.81
2023-03-05T20:15:33.434Z,53893.84
2023-03-05T20:17:59.846Z,53866.97
2023-03-05T20:20:26.201Z,53862.81
2023-03-05T20:22:52.545Z,53860.75
2023-03-05T20:25:24.578Z,53840.09
2023-03-05T20:27:51.518Z,53860.75
2023-03-05T20:30:18.081Z,53877.31
2023-03-05T20:32:44.663Z,53889.72
2023-03-05T20:35:12.737Z,53877.31
2023-03-05T20:37:49.272Z,53858.69
2023-03-05T20:40:19.206Z,53900.03
2023-03-05T20:42:45.501Z,53873.16
2023-03-05T20:45:11.967Z,53844.22
2023-03-05T20:47:42.199Z,53887.63
2023-03-05T20:50:09.846Z,53854.56
2023-03-05T20:52:36.656Z,53887.63
2023-03-05T20:55:03.728Z,53869.03
2023-03-05T20:57:30.644Z,53873.16
2023-03-05T20:59:57.297Z,53885.56
2023-03-05T21:02:23.635Z,53873.16
2023-03-05T21:04:49.961Z,53889.72
2023-03-05T21:07:16.237Z,53885.56
2023-03-05T21:09:50.082Z,53885.56
2023-03-05T21:12:16.412Z,53929.00
2023-03-05T21:14:42.689Z,53910.38
2023-03-05T21:17:09.359Z,53883.50
2023-03-05T21:19:36.899Z,53889.72
2023-03-05T21:22:03.207Z,53893.84
2023-03-05T21:24:33.698Z,53889.72
2023-03-05T21:27:00.009Z,53904.19
2023-03-05T21:29:26.313Z,53902.13
2023-03-05T21:31:52.672Z,53910.38
2023-03-05T21:34:19.452Z,53929.00
2023-03-05T21:36:45.764Z,53897.97
2023-03-05T21:39:12.273Z,53910.38
2023-03-05T21:41:38.557Z,53918.66
2023-03-05T21:44:05.911Z,53906.25
2023-03-05T21:46:32.321Z,53918.66
2023-03-05T21:48:58.640Z,53935.19
2023-03-05T21:51:29.372Z,53920.72
2023-03-05T21:54:04.096Z,53939.34
2023-03-05T21:56:31.815Z,53924.84
2023-03-05T21:59:05.990Z,53939.34
2023-03-05T22:01:32.397Z,53935.19
2023-03-05T22:04:05.286Z,53951.75
2023-03-05T22:06:31.635Z,53947.59
2023-03-05T22:08:57.935Z,53929.00
2023-03-05T22:11:28.604Z,53945.53
2023-03-05T22:13:54.929Z,53947.59
2023-03-05T22:16:22.933Z,53908.31
2023-03-05T22:18:49.272Z,53941.41
2023-03-05T22:21:20.404Z,53922.78
2023-03-05T22:23:46.699Z,53935.19
2023-03-05T22:26:13.216Z,53943.47
2023-03-05T22:28:39.676Z,53937.25
2023-03-05T22:31:06.141Z,53976.53
2023-03-05T22:33:32.467Z,53945.53
2023-03-05T22:35:58.810Z,53949.66
2023-03-05T22:38:25.361Z,53943.47
2023-03-05T22:40:54.783Z,53931.06
2023-03-05T22:43:21.088Z,53970.34
2023-03-05T22:45:47.632Z,53941.41
2023-03-05T22:48:14.045Z,53929.00
2023-03-05T22:50:42.173Z,53964.16
2023-03-05T22:53:08.553Z,53953.81
2023-03-05T22:55:37.438Z,53974.47
2023-03-05T22:58:03.768Z,53984.81
2023-03-05T23:00:45.652Z,53960.00
2023-03-05T23:03:15.875Z,53964.16
2023-03-05T23:05:42.480Z,53968.28
2023-03-05T23:08:09.198Z,53997.22
2023-03-05T23:10:35.577Z,53974.47
2023-03-05T23:13:01.912Z,54001.34
2023-03-05T23:15:29.345Z,53976.53
2023-03-05T23:17:58.166Z,53960.00
2023-03-05T23:20:25.837Z,53980.69
2023-03-05T23:22:53.488Z,54022.03
2023-03-05T23:25:20.507Z,53980.69
2023-03-05T23:27:46.836Z,54030.31
2023-03-05T23:30:19.964Z,54013.75
2023-03-05T23:33:06.117Z,53997.22
2023-03-05T23:35:36.453Z,54030.31
2023-03-05T23:38:06.633Z,54003.44
2023-03-05T23:40:36.705Z,54022.03
2023-03-05T23:43:03.290Z,54034.44
2023-03-05T23:45:29.834Z,54019.97
2023-03-05T23:47:56.505Z,54057.19
2023-03-05T23:50:33.831Z,54030.31
2023-03-05T23:53:02.049Z,54044.78
2023-03-05T23:55:33.071Z,54057.19
2023-03-05T23:58:09.429Z,54046.84
